createdAt,value
2022-09-15T00:01:19.306Z,102090.88
2022-09-15T00:03:47.601Z,102088.25
2022-09-15T00:06:16.156Z,102083.88
2022-09-15T00:08:45.693Z,102084.81
2022-09-15T00:11:18.331Z,102085.69
2022-09-15T00:13:46.846Z,102096.28
2022-09-15T00:16:15.731Z,102091.88
2022-09-15T00:18:44.995Z,102090.16
2022-09-15T00:21:15.998Z,102089.34
2022-09-15T00:23:45.749Z,102089.34
2022-09-15T00:26:16.789Z,102082.50
2022-09-15T00:28:45.171Z,102081.59
2022-09-15T00:31:15.805Z,102077.25
2022-09-15T00:33:44.457Z,102082.59
2022-09-15T00:36:14.214Z,102078.16
2022-09-15T00:38:42.866Z,102080.88
2022-09-15T00:41:14.205Z,102070.47
2022-09-15T00:43:45.968Z,102077.50
2022-09-15T00:46:14.758Z,102083.69
2022-09-15T00:48:45.492Z,102074.16
2022-09-15T00:51:17.911Z,102070.69
2022-09-15T00:53:49.398Z,102070.69
2022-09-15T00:56:20.852Z,102064.56
2022-09-15T00:58:55.189Z,102065.41
2022-09-15T01:01:26.570Z,102069.06
2022-09-15T01:03:56.051Z,102068.16
2022-09-15T01:06:28.056Z,102066.53
2022-09-15T01:09:04.438Z,102066.53
2022-09-15T01:11:34.207Z,102061.41
2022-09-15T01:14:02.464Z,102056.16
2022-09-15T01:16:41.342Z,102052.75
2022-09-15T01:19:33.704Z,102046.66
2022-09-15T01:22:12.815Z,102063.34
2022-09-15T01:25:04.720Z,102065.13
2022-09-15T01:28:17.272Z,102071.25
2022-09-15T01:30:52.998Z,102066.13
2022-09-15T01:33:31.986Z,102069.88
2022-09-15T01:36:14.319Z,102062.91
2022-09-15T01:38:51.849Z,102067.56
2022-09-15T01:41:25.558Z,102070.44
2022-09-15T01:44:00.858Z,102075.03
2022-09-15T01:46:34.958Z,102079.78
2022-09-15T01:49:04.940Z,102079.16
2022-09-15T01:51:34.639Z,102083.81
2022-09-15T01:54:05.404Z,102073.59
2022-09-15T01:56:33.433Z,102087.81
2022-09-15T01:59:01.477Z,102085.41
2022-09-15T02:01:40.697Z,102095.16
2022-09-15T02:04:18.097Z,102102.19
2022-09-15T02:06:54.326Z,102113.56
2022-09-15T02:09:29.368Z,102117.81
2022-09-15T02:12:05.908Z,102124.59
2022-09-15T02:14:49.165Z,102135.75
2022-09-15T02:17:23.615Z,102134.84
2022-09-15T02:19:53.922Z,102146.91
2022-09-15T02:22:27.917Z,102128.50
2022-09-15T02:25:02.941Z,102129.28
2022-09-15T02:27:37.326Z,102140.72
2022-09-15T02:30:09.730Z,102146.91
2022-09-15T02:32:43.049Z,102147.06
2022-09-15T02:35:12.723Z,102141.84
2022-09-15T02:37:40.861Z,102153.38
2022-09-15T02:40:09.822Z,102149.97
2022-09-15T02:42:39.254Z,102156.16
2022-09-15T02:45:08.248Z,102157.16
2022-09-15T02:47:36.293Z,102161.56
2022-09-15T02:50:06.741Z,102169.44
2022-09-15T02:52:34.753Z,102173.78
2022-09-15T02:55:02.752Z,102175.41
2022-09-15T02:57:30.712Z,102178.75
2022-09-15T03:00:21.162Z,102175.97
2022-09-15T03:02:52.005Z,102178.47
2022-09-15T03:05:24.753Z,102173.22
2022-09-15T03:07:53.402Z,102177.53
2022-09-15T03:10:21.754Z,102180.00
2022-09-15T03:12:52.772Z,102173.84
2022-09-15T03:15:23.326Z,102184.19
2022-09-15T03:17:51.970Z,102187.59
2022-09-15T03:20:23.479Z,102188.38
2022-09-15T03:22:51.865Z,102189.13
2022-09-15T03:25:20.232Z,102194.25
2022-09-15T03:27:48.406Z,102185.44
2022-09-15T03:30:16.577Z,102184.44
2022-09-15T03:32:44.846Z,102187.84
2022-09-15T03:35:12.986Z,102193.97
2022-09-15T03:37:42.423Z,102193.03
2022-09-15T03:40:11.728Z,102193.81
2022-09-15T03:42:39.841Z,102193.72
2022-09-15T03:45:08.782Z,102193.66
2022-09-15T03:47:36.786Z,102191.88
2022-09-15T03:50:06.123Z,102188.41
2022-09-15T03:52:34.162Z,102193.56
2022-09-15T03:55:03.556Z,102189.25
2022-09-15T03:57:31.540Z,102197.06
2022-09-15T03:59:59.982Z,102188.31
2022-09-15T04:02:28.211Z,102183.03
2022-09-15T04:04:56.264Z,102189.16
2022-09-15T04:07:24.288Z,102182.13
2022-09-15T04:09:52.302Z,102178.66
2022-09-15T04:12:21.821Z,102181.38
2022-09-15T04:14:49.831Z,102174.47
2022-09-15T04:17:17.878Z,102177.16
2022-09-15T04:19:45.826Z,102173.69
2022-09-15T04:22:17.896Z,102166.66
2022-09-15T04:24:48.055Z,102171.84
2022-09-15T04:27:16.492Z,102159.63
2022-09-15T04:29:46.252Z,102160.47
2022-09-15T04:32:14.249Z,102162.09
2022-09-15T04:34:42.327Z,102163.78
2022-09-15T04:37:11.135Z,102153.44
2022-09-15T04:39:39.582Z,102152.50
2022-09-15T04:42:07.879Z,102149.09
2022-09-15T04:44:35.983Z,102145.59
2022-09-15T04:47:05.934Z,102141.25
2022-09-15T04:49:33.979Z,102143.84
2022-09-15T04:52:02.839Z,102141.19
2022-09-15T04:54:33.011Z,102138.56
2022-09-15T04:57:00.904Z,102136.84
2022-09-15T04:59:29.117Z,102133.31
2022-09-15T05:01:57.725Z,102136.00
2022-09-15T05:04:27.220Z,102133.38
2022-09-15T05:06:55.197Z,102133.47
2022-09-15T05:09:23.358Z,102134.38
2022-09-15T05:11:51.365Z,102132.59
2022-09-15T05:14:19.433Z,102125.66
2022-09-15T05:16:47.469Z,102125.81
2022-09-15T05:19:15.493Z,102127.59
2022-09-15T05:21:44.946Z,102124.97
2022-09-15T05:24:12.853Z,102113.66
2022-09-15T05:26:41.695Z,102115.44
2022-09-15T05:29:09.799Z,102118.94
2022-09-15T05:31:37.841Z,102113.66
2022-09-15T05:34:07.361Z,102110.19
2022-09-15T05:36:35.600Z,102119.75
2022-09-15T05:39:05.260Z,102113.72
2022-09-15T05:41:33.166Z,102121.56
2022-09-15T05:44:01.170Z,102119.84
2022-09-15T05:46:30.185Z,102127.81
2022-09-15T05:48:59.683Z,102115.59
2022-09-15T05:51:27.781Z,102120.84
2022-09-15T05:53:55.816Z,102116.44
2022-09-15T05:56:25.858Z,102124.41
2022-09-15T05:58:54.035Z,102130.50
2022-09-15T06:01:23.761Z,102131.47
2022-09-15T06:03:52.537Z,102131.53
2022-09-15T06:06:21.877Z,102132.53
2022-09-15T06:08:55.583Z,102137.94
2022-09-15T06:11:29.125Z,102144.97
2022-09-15T06:13:57.398Z,102142.41
2022-09-15T06:16:26.696Z,102137.16
2022-09-15T06:18:55.707Z,102145.06
2022-09-15T06:21:25.441Z,102144.19
2022-09-15T06:23:55.128Z,102145.06
2022-09-15T06:26:23.776Z,102148.53
2022-09-15T06:28:55.174Z,102136.16
2022-09-15T06:31:24.461Z,102141.34
2022-09-15T06:33:54.423Z,102138.63
2022-09-15T06:36:26.140Z,102134.91
2022-09-15T06:38:54.436Z,102125.09
2022-09-15T06:41:22.763Z,102114.59
2022-09-15T06:43:53.272Z,102113.72
2022-09-15T06:46:23.514Z,102111.94
2022-09-15T06:48:52.127Z,102092.94
2022-09-15T06:51:23.309Z,102091.22
2022-09-15T06:53:51.953Z,102083.63
2022-09-15T06:56:22.111Z,102089.06
2022-09-15T06:58:50.375Z,102077.84
2022-09-15T07:01:25.311Z,102084.41
2022-09-15T07:03:57.519Z,102069.78
2022-09-15T07:06:26.413Z,102070.94
2022-09-15T07:08:55.143Z,102061.59
2022-09-15T07:11:23.106Z,102070.47
2022-09-15T07:13:51.200Z,102085.53
2022-09-15T07:16:20.763Z,102081.28
2022-09-15T07:18:50.719Z,102080.63
2022-09-15T07:21:21.642Z,102077.22
2022-09-15T07:23:50.907Z,102075.44
2022-09-15T07:26:20.915Z,102068.28
2022-09-15T07:28:51.130Z,102070.75
2022-09-15T07:31:21.483Z,102063.50
2022-09-15T07:33:51.452Z,102070.41
2022-09-15T07:36:19.527Z,102072.81
2022-09-15T07:38:50.027Z,102082.22
2022-09-15T07:41:19.765Z,102074.19
2022-09-15T07:43:48.733Z,102076.63
2022-09-15T07:46:19.081Z,102080.72
2022-09-15T07:48:47.822Z,102080.19
2022-09-15T07:51:18.078Z,102076.16
2022-09-15T07:53:47.753Z,102065.94
2022-09-15T07:56:17.705Z,102074.19
2022-09-15T07:58:45.861Z,102072.41
2022-09-15T08:01:14.841Z,102069.47
2022-09-15T08:03:44.251Z,102072.66
2022-09-15T08:06:12.291Z,102077.72
2022-09-15T08:08:44.119Z,102074.88
2022-09-15T08:11:18.390Z,102073.69
2022-09-15T08:13:47.299Z,102069.84
2022-09-15T08:16:18.084Z,102073.22
2022-09-15T08:18:46.486Z,102068.66
2022-09-15T08:21:16.196Z,102065.94
2022-09-15T08:23:46.008Z,102071.03
2022-09-15T08:26:14.752Z,102073.66
2022-09-15T08:28:42.807Z,102069.75
2022-09-15T08:31:13.917Z,102065.56
2022-09-15T08:33:45.722Z,102068.66
2022-09-15T08:36:14.596Z,102074.97
2022-09-15T08:38:44.564Z,102074.22
2022-09-15T08:41:17.986Z,102077.88
2022-09-15T08:43:52.650Z,102066.50
2022-09-15T08:46:26.984Z,102071.69
2022-09-15T08:49:02.961Z,102070.66
2022-09-15T08:51:36.028Z,102080.94
2022-09-15T08:54:08.846Z,102076.25
2022-09-15T08:56:39.634Z,102092.66
2022-09-15T08:59:09.588Z,102092.66
2022-09-15T09:02:15.097Z,102094.78
2022-09-15T09:05:22.842Z,102103.56
2022-09-15T09:08:09.638Z,102104.56
2022-09-15T09:10:46.845Z,102099.03
2022-09-15T09:13:25.277Z,102106.66
2022-09-15T09:16:09.910Z,102093.97
2022-09-15T09:18:52.359Z,102100.50
2022-09-15T09:21:26.636Z,102095.22
2022-09-15T09:24:03.324Z,102108.50
2022-09-15T09:26:33.852Z,102111.09
2022-09-15T09:29:08.976Z,102104.94
2022-09-15T09:31:37.531Z,102109.16
2022-09-15T09:34:20.581Z,102098.81
2022-09-15T09:36:55.668Z,102112.41
2022-09-15T09:39:23.622Z,102114.03
2022-09-15T09:41:51.661Z,102113.38
2022-09-15T09:44:21.496Z,102115.22
2022-09-15T09:46:49.586Z,102109.13
2022-09-15T09:49:23.083Z,102110.91
2022-09-15T09:51:53.068Z,102102.91
2022-09-15T09:54:26.023Z,102104.53
2022-09-15T09:56:55.029Z,102093.91
2022-09-15T09:59:35.742Z,102097.06
2022-09-15T10:02:22.570Z,102085.13
2022-09-15T10:04:52.318Z,102078.91
2022-09-15T10:07:23.103Z,102087.84
2022-09-15T10:09:54.142Z,102083.59
2022-09-15T10:12:26.205Z,102090.81
2022-09-15T10:14:57.991Z,102086.47
2022-09-15T10:17:28.303Z,102079.75
2022-09-15T10:19:58.356Z,102087.13
2022-09-15T10:22:31.494Z,102083.47
2022-09-15T10:25:00.483Z,102080.06
2022-09-15T10:27:31.245Z,102081.53
2022-09-15T10:30:17.936Z,102082.81
2022-09-15T10:32:45.953Z,102093.75
2022-09-15T10:35:15.500Z,102089.75
2022-09-15T10:37:58.443Z,102083.97
2022-09-15T10:40:46.910Z,102083.31
2022-09-15T10:43:32.115Z,102082.81
2022-09-15T10:46:06.434Z,102082.81
2022-09-15T10:48:55.483Z,102075.59
2022-09-15T10:51:36.798Z,102076.47
2022-09-15T10:54:27.643Z,102066.16
2022-09-15T10:57:03.999Z,102060.81
2022-09-15T10:59:47.338Z,102061.75
2022-09-15T11:02:45.367Z,102052.00
2022-09-15T11:05:27.315Z,102053.72
2022-09-15T11:08:16.223Z,102066.22
2022-09-15T11:10:50.573Z,102073.22
2022-09-15T11:13:29.217Z,102083.94
2022-09-15T11:16:05.859Z,102092.91
2022-09-15T11:18:48.175Z,102085.81
2022-09-15T11:21:28.461Z,102090.81
2022-09-15T11:24:23.351Z,102099.72
2022-09-15T11:26:57.872Z,102111.47
2022-09-15T11:29:30.922Z,102117.66
2022-09-15T11:32:05.834Z,102128.72
2022-09-15T11:34:41.380Z,102124.47
2022-09-15T11:37:16.322Z,102135.81
2022-09-15T11:39:51.480Z,102128.88
2022-09-15T11:42:26.354Z,102126.41
2022-09-15T11:44:56.514Z,102125.91
2022-09-15T11:47:32.170Z,102114.94
2022-09-15T11:50:07.394Z,102117.00
2022-09-15T11:52:47.653Z,102108.66
2022-09-15T11:55:24.329Z,102093.53
2022-09-15T11:57:59.719Z,102077.16
2022-09-15T12:00:27.856Z,102076.53
2022-09-15T12:03:07.715Z,102066.97
2022-09-15T12:05:44.017Z,102066.78
2022-09-15T12:08:22.519Z,102069.06
2022-09-15T12:10:54.649Z,102068.84
2022-09-15T12:13:25.228Z,102072.94
2022-09-15T12:15:54.301Z,102062.84
2022-09-15T12:18:38.984Z,102054.19
2022-09-15T12:21:17.080Z,102054.38
2022-09-15T12:23:48.998Z,102053.22
2022-09-15T12:26:19.222Z,102050.00
2022-09-15T12:28:57.422Z,102052.84
2022-09-15T12:31:30.915Z,102060.34
2022-09-15T12:34:01.166Z,102058.53
2022-09-15T12:36:48.702Z,102055.72
2022-09-15T12:39:29.670Z,102059.50
2022-09-15T12:42:06.620Z,102050.22
2022-09-15T12:44:37.949Z,102052.03
2022-09-15T12:47:08.909Z,102037.91
2022-09-15T12:49:44.620Z,102038.00
2022-09-15T12:52:14.751Z,102033.66
2022-09-15T12:54:45.771Z,102035.22
2022-09-15T12:57:24.241Z,102030.75
2022-09-15T13:00:28.838Z,102019.53
2022-09-15T13:02:57.424Z,102004.31
2022-09-15T13:06:07.237Z,101994.88
2022-09-15T13:08:54.391Z,101992.44
2022-09-15T13:11:34.705Z,101995.00
2022-09-15T13:14:14.707Z,102003.38
2022-09-15T13:16:51.763Z,101996.91
2022-09-15T13:19:24.432Z,101998.03
2022-09-15T13:22:01.514Z,101995.44
2022-09-15T13:24:43.215Z,101993.31
2022-09-15T13:27:13.173Z,101993.31
2022-09-15T13:29:47.207Z,101987.84
2022-09-15T13:32:31.931Z,101998.03
2022-09-15T13:35:27.669Z,101996.34
2022-09-15T13:38:21.783Z,102001.84
2022-09-15T13:41:35.934Z,102007.41
2022-09-15T13:44:23.870Z,102008.78
2022-09-15T13:47:05.508Z,102013.47
2022-09-15T13:49:52.604Z,102011.91
2022-09-15T13:52:31.252Z,102024.03
2022-09-15T13:55:19.617Z,102012.97
2022-09-15T14:00:49.538Z,102026.06
2022-09-15T14:03:25.726Z,102013.91
2022-09-15T14:05:54.628Z,102008.06
2022-09-15T14:08:26.397Z,102001.00
2022-09-15T14:10:57.503Z,102000.22
2022-09-15T14:13:28.645Z,102009.13
2022-09-15T14:16:03.689Z,101997.44
2022-09-15T14:18:41.787Z,101982.38
2022-09-15T14:21:18.105Z,101985.03
2022-09-15T14:23:47.908Z,101983.03
2022-09-15T14:26:18.163Z,101988.97
2022-09-15T14:28:51.393Z,101987.00
2022-09-15T14:31:29.123Z,101991.34
2022-09-15T14:33:57.592Z,101994.22
2022-09-15T14:36:28.532Z,101992.56
2022-09-15T14:39:09.126Z,102005.31
2022-09-15T14:41:37.733Z,102000.88
2022-09-15T14:47:19.028Z,102007.88
2022-09-15T14:49:47.082Z,102003.66
2022-09-15T14:52:26.008Z,102014.09
2022-09-15T14:55:00.420Z,102018.75
2022-09-15T14:57:31.769Z,102013.88
2022-09-15T15:00:05.965Z,102023.19
2022-09-15T15:02:49.823Z,102023.19
2022-09-15T15:05:22.517Z,102039.88
2022-09-15T15:07:51.711Z,102049.38
2022-09-15T15:10:22.922Z,102042.78
2022-09-15T15:12:53.664Z,102052.63
2022-09-15T15:15:22.324Z,102052.59
2022-09-15T15:17:54.857Z,102059.78
2022-09-15T15:20:25.648Z,102058.72
2022-09-15T15:23:15.513Z,102071.41
2022-09-15T15:25:44.217Z,102070.66
2022-09-15T15:28:31.262Z,102074.91
2022-09-15T15:31:14.783Z,102075.75
2022-09-15T15:33:50.011Z,102074.34
2022-09-15T15:36:23.923Z,102078.75
2022-09-15T15:38:54.298Z,102076.03
2022-09-15T15:41:24.423Z,102076.44
2022-09-15T15:44:03.250Z,102076.03
2022-09-15T15:46:52.940Z,102064.09
2022-09-15T15:49:27.090Z,102063.53
2022-09-15T15:51:56.115Z,102064.34
2022-09-15T15:54:24.485Z,102070.09
2022-09-15T15:56:53.267Z,102079.91
2022-09-15T15:59:21.526Z,102072.72
2022-09-15T16:01:52.944Z,102080.28
2022-09-15T16:04:22.507Z,102081.31
2022-09-15T16:06:50.988Z,102083.84
2022-09-15T16:09:20.804Z,102092.63
2022-09-15T16:11:49.088Z,102086.78
2022-09-15T16:14:17.211Z,102088.56
2022-09-15T16:16:45.237Z,102099.19
2022-09-15T16:19:13.698Z,102094.47
2022-09-15T16:21:43.434Z,102091.25
2022-09-15T16:24:14.709Z,102083.59
2022-09-15T16:26:43.982Z,102079.44
2022-09-15T16:29:12.555Z,102085.47
2022-09-15T16:31:40.878Z,102083.53
2022-09-15T16:34:11.924Z,102081.63
2022-09-15T16:36:39.960Z,102084.09
2022-09-15T16:39:09.376Z,102089.19
2022-09-15T16:41:39.404Z,102086.63
2022-09-15T16:44:15.847Z,102096.31
2022-09-15T16:46:43.860Z,102093.50
2022-09-15T16:49:11.972Z,102090.22
2022-09-15T16:51:39.986Z,102100.56
2022-09-15T16:54:16.265Z,102096.94
2022-09-15T16:56:44.534Z,102097.44
2022-09-15T16:59:12.827Z,102101.25
2022-09-15T17:01:41.156Z,102098.03
2022-09-15T17:04:15.862Z,102099.28
2022-09-15T17:06:44.449Z,102100.31
2022-09-15T17:09:14.490Z,102098.47
2022-09-15T17:11:43.216Z,102093.94
2022-09-15T17:14:15.334Z,102095.81
2022-09-15T17:16:46.775Z,102098.34
2022-09-15T17:19:14.685Z,102099.38
2022-09-15T17:21:43.635Z,102099.66
2022-09-15T17:24:13.505Z,102107.31
2022-09-15T17:26:41.426Z,102110.16
2022-09-15T17:29:09.685Z,102105.06
2022-09-15T17:31:37.741Z,102113.94
2022-09-15T17:34:05.790Z,102101.59
2022-09-15T17:36:36.218Z,102109.69
2022-09-15T17:39:04.346Z,102115.00
2022-09-15T17:41:33.990Z,102117.16
2022-09-15T17:44:02.166Z,102121.19
2022-09-15T17:46:30.140Z,102127.63
2022-09-15T17:48:58.121Z,102126.22
2022-09-15T17:51:26.169Z,102124.91
2022-09-15T17:53:54.982Z,102134.75
2022-09-15T17:56:22.941Z,102138.56
2022-09-15T17:58:52.340Z,102133.53
2022-09-15T18:01:20.346Z,102143.06
2022-09-15T18:03:48.637Z,102141.94
2022-09-15T18:06:16.568Z,102136.69
2022-09-15T18:08:44.494Z,102141.34
2022-09-15T18:11:15.561Z,102145.09
2022-09-15T18:13:43.527Z,102133.00
2022-09-15T18:16:15.219Z,102134.13
2022-09-15T18:18:43.684Z,102132.66
2022-09-15T18:21:25.808Z,102136.41
2022-09-15T18:23:53.891Z,102133.94
2022-09-15T18:26:26.231Z,102133.22
2022-09-15T18:28:56.062Z,102139.50
2022-09-15T18:31:25.484Z,102145.81
2022-09-15T18:33:53.627Z,102146.16
2022-09-15T18:36:21.795Z,102151.78
2022-09-15T18:38:49.714Z,102152.97
2022-09-15T18:41:17.743Z,102152.31
2022-09-15T18:43:49.148Z,102148.16
2022-09-15T18:46:18.712Z,102149.31
2022-09-15T18:48:48.216Z,102151.16
2022-09-15T18:51:23.626Z,102147.81
2022-09-15T18:53:54.387Z,102147.06
2022-09-15T18:56:22.759Z,102148.06
2022-09-15T18:58:54.056Z,102149.13
2022-09-15T19:01:22.335Z,102152.75
2022-09-15T19:03:51.750Z,102153.91
2022-09-15T19:06:19.887Z,102158.59
2022-09-15T19:08:47.836Z,102153.66
2022-09-15T19:11:16.081Z,102154.72
2022-09-15T19:13:44.025Z,102163.72
2022-09-15T19:16:12.400Z,102164.84
2022-09-15T19:18:40.482Z,102170.22
2022-09-15T19:21:12.151Z,102176.47
2022-09-15T19:23:40.315Z,102181.88
2022-09-15T19:26:13.054Z,102190.75
2022-09-15T19:28:41.045Z,102189.06
2022-09-15T19:31:09.175Z,102195.22
2022-09-15T19:33:37.905Z,102191.81
2022-09-15T19:36:27.481Z,102192.81
2022-09-15T19:38:58.063Z,102202.47
2022-09-15T19:41:26.074Z,102206.09
2022-09-15T19:43:54.343Z,102209.72
2022-09-15T19:46:25.420Z,102211.56
2022-09-15T19:48:54.003Z,102219.56
2022-09-15T19:51:23.045Z,102209.13
2022-09-15T19:53:53.979Z,102218.00
2022-09-15T19:56:26.151Z,102223.38
2022-09-15T19:58:55.731Z,102228.72
2022-09-15T20:01:24.724Z,102232.19
2022-09-15T20:03:55.100Z,102233.19
2022-09-15T20:06:23.565Z,102247.13
2022-09-15T20:08:54.407Z,102243.59
2022-09-15T20:11:23.738Z,102239.13
2022-09-15T20:13:52.282Z,102249.59
2022-09-15T20:16:22.242Z,102250.38
2022-09-15T20:18:52.630Z,102245.97
2022-09-15T20:21:45.743Z,102253.84
2022-09-15T20:24:11.091Z,102245.97
2022-09-15T20:26:41.314Z,102254.75
2022-09-15T20:29:09.438Z,102241.50
2022-09-15T20:31:37.873Z,102248.47
2022-09-15T20:34:06.031Z,102251.72
2022-09-15T20:36:36.120Z,102260.38
2022-09-15T20:39:06.155Z,102256.78
2022-09-15T20:41:34.094Z,102254.00
2022-09-15T20:44:05.272Z,102258.28
2022-09-15T20:46:33.628Z,102255.59
2022-09-15T20:49:01.967Z,102252.88
2022-09-15T20:51:31.803Z,102256.28
2022-09-15T20:54:01.223Z,102252.75
2022-09-15T20:56:31.514Z,102252.63
2022-09-15T20:59:00.700Z,102254.16
2022-09-15T21:01:33.576Z,102255.88
2022-09-15T21:04:01.706Z,102254.25
2022-09-15T21:06:29.912Z,102254.53
2022-09-15T21:08:58.610Z,102253.03
2022-09-15T21:11:28.104Z,102256.78
2022-09-15T21:13:56.384Z,102258.84
2022-09-15T21:16:25.904Z,102251.22
2022-09-15T21:18:56.509Z,102261.97
2022-09-15T21:21:26.318Z,102270.06
2022-09-15T21:23:55.835Z,102266.84
2022-09-15T21:26:25.408Z,102266.13
2022-09-15T21:28:54.686Z,102258.44
2022-09-15T21:31:25.481Z,102261.19
2022-09-15T21:33:55.383Z,102267.53
2022-09-15T21:36:24.801Z,102259.78
2022-09-15T21:38:56.203Z,102263.44
2022-09-15T21:41:26.293Z,102265.28
2022-09-15T21:43:55.843Z,102262.78
2022-09-15T21:46:26.601Z,102282.06
2022-09-15T21:48:57.543Z,102272.53
2022-09-15T21:51:26.803Z,102276.81
2022-09-15T21:53:56.155Z,102278.53
2022-09-15T21:56:25.663Z,102287.16
2022-09-15T21:58:54.274Z,102287.00
2022-09-15T22:01:24.286Z,102286.06
2022-09-15T22:03:54.127Z,102293.81
2022-09-15T22:06:27.641Z,102289.34
2022-09-15T22:08:56.085Z,102285.88
2022-09-15T22:11:24.631Z,102287.59
2022-09-15T22:13:52.811Z,102285.81
2022-09-15T22:16:22.530Z,102289.22
2022-09-15T22:18:51.743Z,102287.41
2022-09-15T22:21:21.348Z,102295.19
2022-09-15T22:23:52.217Z,102292.38
2022-09-15T22:26:21.870Z,102299.25
2022-09-15T22:28:50.014Z,102293.88
2022-09-15T22:31:19.808Z,102290.28
2022-09-15T22:33:48.273Z,102294.69
2022-09-15T22:36:18.353Z,102290.47
2022-09-15T22:38:46.749Z,102289.69
2022-09-15T22:41:18.592Z,102288.84
2022-09-15T22:43:49.023Z,102291.38
2022-09-15T22:46:18.887Z,102294.81
2022-09-15T22:48:47.010Z,102292.13
2022-09-15T22:51:15.787Z,102289.44
2022-09-15T22:53:44.131Z,102283.25
2022-09-15T22:56:15.176Z,102278.94
2022-09-15T22:58:45.230Z,102287.81
2022-09-15T23:01:16.304Z,102289.63
2022-09-15T23:03:47.579Z,102282.72
2022-09-15T23:06:15.603Z,102279.44
2022-09-15T23:08:43.559Z,102283.13
2022-09-15T23:11:14.233Z,102283.31
2022-09-15T23:13:42.894Z,102278.16
2022-09-15T23:16:12.265Z,102284.31
2022-09-15T23:18:40.368Z,102282.66
2022-09-15T23:21:10.477Z,102282.88
2022-09-15T23:23:40.199Z,102286.47
2022-09-15T23:26:10.300Z,102282.22
2022-09-15T23:28:38.963Z,102284.84
2022-09-15T23:31:07.702Z,102283.78
2022-09-15T23:33:37.262Z,102278.31
2022-09-15T23:36:07.712Z,102277.38
2022-09-15T23:38:36.617Z,102277.22
2022-09-15T23:41:05.183Z,102276.19
2022-09-15T23:43:33.332Z,102272.56
2022-09-15T23:46:01.846Z,102280.34
2022-09-15T23:48:31.595Z,102281.16
2022-09-15T23:51:01.299Z,102284.56
2022-09-15T23:53:29.372Z,102277.44
2022-09-15T23:55:57.671Z,102286.09
2022-09-15T23:58:25.706Z,102286.00
